Terminal Aerodrome Forecast
Issued by NWS

Home | Current Version | Previous Version | Text Only | Print | Product List | Glossary On
Versions: 1 2 3 4 5 6 7 8 9 10 11 12 13
000
FTUS42 TJSJ 242300
TAFISX
TAF
TISX 242332Z 2500/2524 06007KT P6SM VCSH SCT025
     FM251300 06014KT P6SM VCSH SCT025
     FM252300 06008KT P6SM FEW030
      AMD NOT SKED=

USA.gov is the U.S. government's official web portal to all federal, state and local government web resources and services.